Fort Stockton Pecos County Airport
KFST : now visible

Airfield :











YOU CAN JOIN US ON...

 
LOGIN :

Register | Disclaimer

   EN    FR    IT 

 









Legend :    VFR   Marginal VFR   IFR   Intensive IFR   Very Intensive IFR
Visi :
Ceiling :
>= 8 km
>= 3000ft
5 to 8 km
1000 to 3000 ft
1500m to 5 km
500 to 1000 ft
800 to 1500m
200 to 500 ft
< 800m
< 200 ft
Symbols :   Thunderstorms  Fog  Heavy snow  Heavy precipitations  Wind > 20 kt






- Airport Elevation : 3011 ft


KFST - Fort Stockton Pecos County

CURRENT METAR :
  • 181153Z AUTO 01005KT 10SM CLR 07/06 A3026 RMK AO2 SLP220 T00720061 10128 20061 52037

EXPIRED METARs :
  • 181053Z AUTO 00000KT 10SM CLR 06/04 A3021 RMK AO2 SLP204 T00610044
  • 180953Z AUTO 29008KT 10SM CLR 11/05 A3019 RMK AO2 SLP192 T01110050

TAF KFST
Valid from the 18 at 12:00 until the 19 at 12:00 UTC


181124Z 1812/1912 30008KT P6SM SKC
FM181800 03010KT P6SM SKC
FM190000 06006KT P6SM SKC



MET'MAP, your aeronautical weather chart ! - Copyright ORBIFLY December 2007 - Disclaimer

ORBIFLY MET'MAP TEAM :

Programming & Development : Alexandra Zaïnal
Concept & original design : Baudouin d'Aumeries
Assistance for programming : Marc-Olivier Méhu
Technical & hardware support : Manuel Goepfert

Contact : metmap@orbifly.com




SOURCES & CREDITS :

   NOAA       Earth
Advisory